sensor_id;sensor_type;location;lat;lon;timestamp;P1;durP1;ratioP1;P2;durP2;ratioP2
12800;SDS011;6464;42.494;27.470;2023-12-04T00:01:00;0.80;;;0.80;;
12800;SDS011;6464;42.494;27.470;2023-12-04T00:36:09;0.60;;;0.60;;
12800;SDS011;6464;42.494;27.470;2023-12-04T00:39:28;0.70;;;0.70;;
12800;SDS011;6464;42.494;27.470;2023-12-04T00:45:39;0.70;;;0.70;;
12800;SDS011;6464;42.494;27.470;2023-12-04T00:48:27;0.80;;;0.80;;
12800;SDS011;6464;42.494;27.470;2023-12-04T04:04:54;1.33;;;1.33;;
12800;SDS011;6464;42.494;27.470;2023-12-04T04:07:37;1.00;;;1.00;;
12800;SDS011;6464;42.494;27.470;2023-12-04T04:10:12;1.30;;;1.30;;
12800;SDS011;6464;42.494;27.470;2023-12-04T04:12:44;0.93;;;0.93;;
12800;SDS011;6464;42.494;27.470;2023-12-04T04:15:12;1.20;;;1.20;;
12800;SDS011;6464;42.494;27.470;2023-12-04T04:17:55;1.30;;;1.30;;
12800;SDS011;6464;42.494;27.470;2023-12-04T04:23:24;0.90;;;0.90;;
12800;SDS011;6464;42.494;27.470;2023-12-04T04:26:38;0.90;;;0.90;;
12800;SDS011;6464;42.494;27.470;2023-12-04T04:29:25;0.80;;;0.80;;
12800;SDS011;6464;42.494;27.470;2023-12-04T04:50:33;0.60;;;0.60;;
12800;SDS011;6464;42.494;27.470;2023-12-04T04:57:00;0.90;;;0.90;;
12800;SDS011;6464;42.494;27.470;2023-12-04T05:25:44;0.60;;;0.60;;
12800;SDS011;6464;42.494;27.470;2023-12-04T05:34:00;0.90;;;0.90;;
12800;SDS011;6464;42.494;27.470;2023-12-04T05:36:28;0.90;;;0.90;;
12800;SDS011;6464;42.494;27.470;2023-12-04T05:38:55;1.20;;;1.20;;
12800;SDS011;6464;42.494;27.470;2023-12-04T05:41:24;1.10;;;1.10;;
12800;SDS011;6464;42.494;27.470;2023-12-04T05:43:51;0.90;;;0.90;;
12800;SDS011;6464;42.494;27.470;2023-12-04T05:46:18;0.90;;;0.90;;
12800;SDS011;6464;42.494;27.470;2023-12-04T05:48:45;0.90;;;0.90;;
12800;SDS011;6464;42.494;27.470;2023-12-04T05:51:13;1.20;;;1.20;;
12800;SDS011;6464;42.494;27.470;2023-12-04T05:53:40;1.67;;;1.67;;
12800;SDS011;6464;42.494;27.470;2023-12-04T05:56:07;1.30;;;1.30;;
12800;SDS011;6464;42.494;27.470;2023-12-04T05:58:37;1.83;;;1.83;;
12800;SDS011;6464;42.494;27.470;2023-12-04T06:01:04;2.10;;;2.10;;
12800;SDS011;6464;42.494;27.470;2023-12-04T06:03:32;1.80;;;1.80;;
12800;SDS011;6464;42.494;27.470;2023-12-04T06:06:00;1.60;;;1.60;;
12800;SDS011;6464;42.494;27.470;2023-12-04T06:08:26;1.90;;;1.90;;
12800;SDS011;6464;42.494;27.470;2023-12-04T06:10:53;1.93;;;1.93;;
12800;SDS011;6464;42.494;27.470;2023-12-04T06:13:20;1.80;;;1.80;;
12800;SDS011;6464;42.494;27.470;2023-12-04T06:15:48;1.57;;;1.57;;
12800;SDS011;6464;42.494;27.470;2023-12-04T06:18:15;2.30;;;2.30;;
12800;SDS011;6464;42.494;27.470;2023-12-04T06:20:42;2.57;;;2.57;;
12800;SDS011;6464;42.494;27.470;2023-12-04T06:23:09;2.83;;;2.83;;
12800;SDS011;6464;42.494;27.470;2023-12-04T06:25:37;2.20;;;2.20;;
12800;SDS011;6464;42.494;27.470;2023-12-04T06:28:05;2.60;;;2.60;;
12800;SDS011;6464;42.494;27.470;2023-12-04T06:30:33;2.70;;;2.70;;
12800;SDS011;6464;42.494;27.470;2023-12-04T06:33:02;2.53;;;2.53;;
12800;SDS011;6464;42.494;27.470;2023-12-04T06:35:30;3.20;;;3.20;;
12800;SDS011;6464;42.494;27.470;2023-12-04T06:37:57;2.60;;;2.60;;
12800;SDS011;6464;42.494;27.470;2023-12-04T06:40:32;2.90;;;2.90;;
12800;SDS011;6464;42.494;27.470;2023-12-04T06:43:00;2.40;;;2.40;;
12800;SDS011;6464;42.494;27.470;2023-12-04T06:45:28;2.80;;;2.80;;
12800;SDS011;6464;42.494;27.470;2023-12-04T06:47:57;3.77;;;3.67;;
12800;SDS011;6464;42.494;27.470;2023-12-04T06:50:28;3.17;;;3.17;;
12800;SDS011;6464;42.494;27.470;2023-12-04T06:52:55;3.37;;;3.37;;
12800;SDS011;6464;42.494;27.470;2023-12-04T06:55:23;2.80;;;2.80;;
12800;SDS011;6464;42.494;27.470;2023-12-04T06:57:50;3.50;;;3.50;;
12800;SDS011;6464;42.494;27.470;2023-12-04T07:00:17;2.90;;;2.90;;
12800;SDS011;6464;42.494;27.470;2023-12-04T07:02:45;2.10;;;2.10;;
12800;SDS011;6464;42.494;27.470;2023-12-04T07:05:12;3.27;;;3.27;;
12800;SDS011;6464;42.494;27.470;2023-12-04T07:07:40;2.93;;;2.93;;
12800;SDS011;6464;42.494;27.470;2023-12-04T07:10:08;3.20;;;3.20;;
12800;SDS011;6464;42.494;27.470;2023-12-04T07:12:39;2.50;;;2.50;;
12800;SDS011;6464;42.494;27.470;2023-12-04T07:15:07;2.97;;;2.97;;
12800;SDS011;6464;42.494;27.470;2023-12-04T07:17:35;3.20;;;3.20;;
12800;SDS011;6464;42.494;27.470;2023-12-04T07:20:03;3.40;;;3.40;;
12800;SDS011;6464;42.494;27.470;2023-12-04T07:22:32;3.80;;;3.70;;
12800;SDS011;6464;42.494;27.470;2023-12-04T07:25:01;4.27;;;4.17;;
12800;SDS011;6464;42.494;27.470;2023-12-04T07:27:28;3.03;;;3.03;;
12800;SDS011;6464;42.494;27.470;2023-12-04T07:29:56;3.63;;;3.63;;
12800;SDS011;6464;42.494;27.470;2023-12-04T07:32:23;3.83;;;3.73;;
12800;SDS011;6464;42.494;27.470;2023-12-04T07:34:50;3.37;;;3.37;;
12800;SDS011;6464;42.494;27.470;2023-12-04T07:37:17;4.03;;;3.93;;
12800;SDS011;6464;42.494;27.470;2023-12-04T07:39:44;4.40;;;4.30;;
12800;SDS011;6464;42.494;27.470;2023-12-04T07:42:13;4.50;;;4.40;;
12800;SDS011;6464;42.494;27.470;2023-12-04T07:44:40;4.37;;;4.27;;
12800;SDS011;6464;42.494;27.470;2023-12-04T07:47:07;3.97;;;3.87;;
12800;SDS011;6464;42.494;27.470;2023-12-04T07:49:35;4.40;;;4.30;;
12800;SDS011;6464;42.494;27.470;2023-12-04T07:52:03;4.30;;;4.20;;
12800;SDS011;6464;42.494;27.470;2023-12-04T07:54:30;4.40;;;4.30;;
12800;SDS011;6464;42.494;27.470;2023-12-04T07:56:57;4.50;;;4.40;;
12800;SDS011;6464;42.494;27.470;2023-12-04T07:59:26;5.80;;;5.70;;
12800;SDS011;6464;42.494;27.470;2023-12-04T08:01:53;5.67;;;5.57;;
12800;SDS011;6464;42.494;27.470;2023-12-04T08:04:21;5.50;;;5.40;;
12800;SDS011;6464;42.494;27.470;2023-12-04T08:06:48;5.33;;;5.23;;
12800;SDS011;6464;42.494;27.470;2023-12-04T08:09:16;4.43;;;4.33;;
12800;SDS011;6464;42.494;27.470;2023-12-04T08:11:43;3.50;;;3.50;;
12800;SDS011;6464;42.494;27.470;2023-12-04T08:14:10;4.07;;;3.97;;
12800;SDS011;6464;42.494;27.470;2023-12-04T08:16:39;4.40;;;4.30;;
12800;SDS011;6464;42.494;27.470;2023-12-04T08:19:06;4.20;;;4.10;;
12800;SDS011;6464;42.494;27.470;2023-12-04T08:21:33;4.23;;;4.13;;
12800;SDS011;6464;42.494;27.470;2023-12-04T08:24:00;4.53;;;4.43;;
12800;SDS011;6464;42.494;27.470;2023-12-04T08:26:28;4.33;;;4.23;;
12800;SDS011;6464;42.494;27.470;2023-12-04T08:28:56;5.67;;;5.57;;
12800;SDS011;6464;42.494;27.470;2023-12-04T08:31:23;5.33;;;5.23;;
12800;SDS011;6464;42.494;27.470;2023-12-04T08:33:51;4.67;;;4.57;;
12800;SDS011;6464;42.494;27.470;2023-12-04T08:36:19;4.97;;;4.87;;
12800;SDS011;6464;42.494;27.470;2023-12-04T08:38:47;5.90;;;5.80;;
12800;SDS011;6464;42.494;27.470;2023-12-04T08:41:14;5.20;;;5.10;;
12800;SDS011;6464;42.494;27.470;2023-12-04T08:43:41;5.70;;;5.60;;
12800;SDS011;6464;42.494;27.470;2023-12-04T08:46:11;5.13;;;5.03;;
12800;SDS011;6464;42.494;27.470;2023-12-04T08:48:39;4.93;;;4.83;;
12800;SDS011;6464;42.494;27.470;2023-12-04T08:51:14;4.20;;;4.10;;
12800;SDS011;6464;42.494;27.470;2023-12-04T09:01:29;6.90;;;6.70;;
12800;SDS011;6464;42.494;27.470;2023-12-04T12:13:36;5.83;;;5.73;;
12800;SDS011;6464;42.494;27.470;2023-12-04T12:20:13;5.80;;;5.70;;
12800;SDS011;6464;42.494;27.470;2023-12-04T15:16:56;6.53;;;6.33;;
12800;SDS011;6464;42.494;27.470;2023-12-04T15:23:09;6.43;;;6.23;;
12800;SDS011;6464;42.494;27.470;2023-12-04T16:32:19;6.40;;;6.20;;
12800;SDS011;6464;42.494;27.470;2023-12-04T17:15:30;6.40;;;6.20;;
12800;SDS011;6464;42.494;27.470;2023-12-04T19:54:16;5.70;;;5.60;;
12800;SDS011;6464;42.494;27.470;2023-12-04T21:14:49;4.20;;;4.10;;
12800;SDS011;6464;42.494;27.470;2023-12-04T21:17:35;4.23;;;4.13;;
12800;SDS011;6464;42.494;27.470;2023-12-04T21:20:23;4.50;;;4.40;;
12800;SDS011;6464;42.494;27.470;2023-12-04T21:23:14;4.27;;;4.17;;
12800;SDS011;6464;42.494;27.470;2023-12-04T21:25:49;4.10;;;4.00;;
12800;SDS011;6464;42.494;27.470;2023-12-04T21:34:56;4.70;;;4.60;;
12800;SDS011;6464;42.494;27.470;2023-12-04T21:38:01;4.37;;;4.27;;
12800;SDS011;6464;42.494;27.470;2023-12-04T21:41:04;4.30;;;4.20;;
12800;SDS011;6464;42.494;27.470;2023-12-04T22:20:33;4.23;;;4.13;;
12800;SDS011;6464;42.494;27.470;2023-12-04T22:37:05;4.20;;;4.10;;
12800;SDS011;6464;42.494;27.470;2023-12-04T22:40:15;4.60;;;4.50;;
12800;SDS011;6464;42.494;27.470;2023-12-04T22:46:33;3.60;;;3.60;;
12800;SDS011;6464;42.494;27.470;2023-12-04T22:49:24;3.57;;;3.57;;
12800;SDS011;6464;42.494;27.470;2023-12-04T23:02:01;4.67;;;4.57;;
12800;SDS011;6464;42.494;27.470;2023-12-04T23:04:47;4.20;;;4.10;;
12800;SDS011;6464;42.494;27.470;2023-12-04T23:33:04;4.47;;;4.37;;
12800;SDS011;6464;42.494;27.470;2023-12-04T23:35:36;4.40;;;4.30;;
12800;SDS011;6464;42.494;27.470;2023-12-04T23:38:18;4.30;;;4.20;;
12800;SDS011;6464;42.494;27.470;2023-12-04T23:40:59;3.80;;;3.70;;
12800;SDS011;6464;42.494;27.470;2023-12-04T23:43:42;3.87;;;3.77;;
12800;SDS011;6464;42.494;27.470;2023-12-04T23:46:24;2.50;;;2.50;;
